Time;durP1;ratioP1;P1;durP2;ratioP2;P2;SDS_P1;SDS_P2;PMS_P1;PMS_P2;Temp;Humidity;BMP_temperature;BMP_pressure;BME280_temperature;BME280_humidity;BME280_pressure;Samples;Min_cycle;Max_cycle;Signal;HPM_P1;HPM_P2
2023/02/04 00:00:00;;;;;;;12.10;3.23;;;9.00;99.90;;;;;;4900822;29;20185;-88
2023/02/04 00:05:57;;;;;;;20.17;4.75;;;9.00;99.90;;;;;;4964498;28;20442;-89
2023/02/04 00:12:09;;;;;;;9.70;3.37;;;8.90;99.90;;;;;;4966471;28;20445;-88
2023/02/04 00:17:28;;;;;;;15.77;4.07;;;8.90;99.90;;;;;;4968811;28;20467;-88
2023/02/04 00:19:54;;;;;;;15.70;4.70;;;8.90;99.90;;;;;;4979135;28;20462;-88
2023/02/04 00:22:20;;;;;;;14.10;4.20;;;8.90;99.90;;;;;;4972169;28;20247;-88
2023/02/04 00:24:48;;;;;;;18.23;4.00;;;8.90;99.90;;;;;;4970711;28;20727;-88
2023/02/04 00:27:15;;;;;;;19.40;4.60;;;8.90;99.90;;;;;;4967434;28;20212;-88
2023/02/04 00:29:41;;;;;;;15.50;4.90;;;8.90;99.90;;;;;;4970696;28;20443;-88
2023/02/04 00:32:06;;;;;;;13.03;4.13;;;8.90;99.90;;;;;;4973020;28;20458;-88
2023/02/04 00:34:32;;;;;;;13.90;4.33;;;8.90;99.90;;;;;;4973627;28;20438;-86
2023/02/04 00:36:57;;;;;;;19.33;4.20;;;8.80;99.90;;;;;;4972285;28;20567;-88
2023/02/04 00:39:23;;;;;;;12.63;3.30;;;8.80;99.90;;;;;;4971905;28;20275;-88
2023/02/04 00:41:48;;;;;;;20.97;4.33;;;8.80;99.90;;;;;;4970622;28;20200;-87
2023/02/04 00:44:14;;;;;;;17.23;3.73;;;8.80;99.90;;;;;;4966823;28;20690;-86
2023/02/04 00:46:41;;;;;;;27.87;4.23;;;8.70;99.90;;;;;;4971886;28;20205;-88
2023/02/04 00:49:09;;;;;;;17.48;4.57;;;8.80;99.90;;;;;;4972168;28;20184;-88
2023/02/04 00:51:37;;;;;;;13.53;4.60;;;8.70;99.90;;;;;;4974040;28;20565;-88
2023/02/04 00:54:02;;;;;;;13.25;3.90;;;8.70;99.90;;;;;;4971402;28;20459;-88
2023/02/04 00:56:28;;;;;;;23.10;4.70;;;8.70;99.90;;;;;;4975867;28;20207;-87
2023/02/04 00:58:53;;;;;;;13.70;4.17;;;8.70;99.90;;;;;;4968978;28;20180;-88
2023/02/04 01:01:19;;;;;;;17.20;4.83;;;8.70;99.90;;;;;;4965301;28;20243;-88
2023/02/04 01:03:44;;;;;;;16.90;4.67;;;8.70;99.90;;;;;;4964221;28;20208;-88
2023/02/04 01:06:10;;;;;;;18.30;3.60;;;8.70;99.90;;;;;;4966400;28;20614;-88
2023/02/04 01:08:36;;;;;;;17.83;4.65;;;8.70;99.90;;;;;;4972730;28;20781;-88
2023/02/04 01:11:01;;;;;;;18.40;4.90;;;8.70;99.90;;;;;;4968122;28;20180;-88
2023/02/04 01:13:27;;;;;;;14.60;3.90;;;8.70;99.90;;;;;;4972058;28;20239;-89
2023/02/04 01:15:52;;;;;;;12.23;3.93;;;8.70;99.90;;;;;;4972062;28;20193;-88
2023/02/04 01:18:18;;;;;;;22.40;4.20;;;8.80;99.90;;;;;;4969156;28;20648;-87
2023/02/04 01:20:43;;;;;;;21.10;4.43;;;8.80;99.90;;;;;;4969613;28;20666;-88
2023/02/04 01:23:11;;;;;;;14.90;3.67;;;8.80;99.90;;;;;;4970637;28;20247;-88
2023/02/04 01:25:36;;;;;;;13.70;4.63;;;8.80;99.90;;;;;;4970932;28;20228;-90
2023/02/04 01:28:02;;;;;;;13.67;4.03;;;8.80;99.90;;;;;;4972656;28;20491;-88
2023/02/04 01:30:27;;;;;;;15.80;4.40;;;8.80;99.90;;;;;;4970672;28;20180;-88
2023/02/04 01:32:53;;;;;;;11.93;2.97;;;8.80;99.90;;;;;;4969728;28;20216;-89
2023/02/04 01:35:18;;;;;;;13.23;3.27;;;8.90;99.90;;;;;;4968107;28;20247;-88
2023/02/04 01:37:44;;;;;;;15.30;3.70;;;8.90;99.90;;;;;;4966548;28;20573;-86
2023/02/04 01:40:10;;;;;;;16.57;3.70;;;8.90;99.90;;;;;;4972360;28;20239;-90
2023/02/04 01:42:36;;;;;;;16.03;4.20;;;8.90;99.90;;;;;;4972048;28;20228;-88
2023/02/04 01:45:05;;;;;;;14.47;4.37;;;8.80;99.90;;;;;;4971740;28;20491;-87
2023/02/04 01:47:31;;;;;;;13.63;4.80;;;8.90;99.90;;;;;;4972445;28;20208;-88
2023/02/04 01:49:56;;;;;;;26.33;4.90;;;8.80;99.90;;;;;;4967741;28;20452;-88
2023/02/04 01:52:23;;;;;;;20.43;5.17;;;8.80;99.90;;;;;;4957863;28;20448;-88
2023/02/04 01:54:48;;;;;;;11.50;4.43;;;8.80;99.90;;;;;;4961859;28;20291;-89
2023/02/04 01:57:15;;;;;;;20.37;5.10;;;8.80;99.90;;;;;;4972355;28;20539;-88
2023/02/04 01:59:43;;;;;;;24.83;4.73;;;8.70;99.90;;;;;;4970127;28;20279;-89
2023/02/04 02:02:37;;;;;;;30.17;7.47;;;8.70;99.90;;;;;;4971187;28;20498;-87
2023/02/04 02:05:03;;;;;;;13.40;5.00;;;8.70;99.90;;;;;;4971372;28;20465;-88
2023/02/04 02:07:29;;;;;;;13.20;4.47;;;8.70;99.90;;;;;;4968935;28;20979;-88
2023/02/04 02:09:54;;;;;;;18.83;5.17;;;8.60;99.90;;;;;;4971084;28;20263;-88
2023/02/04 02:12:20;;;;;;;22.97;5.37;;;8.60;99.90;;;;;;4972781;28;20603;-88
2023/02/04 02:14:45;;;;;;;18.23;5.17;;;8.60;99.90;;;;;;4973123;28;20209;-88
2023/02/04 02:17:11;;;;;;;27.07;5.67;;;8.60;1.00;;;;;;4974172;28;20188;-88
2023/02/04 02:19:37;;;;;;;14.97;4.27;;;8.60;1.00;;;;;;4972723;28;20192;-88
2023/02/04 02:22:24;;;;;;;16.63;4.93;;;8.60;1.00;;;;;;4973648;28;20581;-88
2023/02/04 02:24:49;;;;;;;19.03;4.70;;;8.50;1.00;;;;;;4967555;28;20472;-88
2023/02/04 02:27:15;;;;;;;22.37;5.33;;;8.50;1.00;;;;;;4970991;28;20850;-88
2023/02/04 02:29:41;;;;;;;19.98;4.47;;;8.50;1.00;;;;;;4970600;28;20195;-88
2023/02/04 02:32:09;;;;;;;17.47;3.93;;;8.50;1.00;;;;;;4971628;28;20640;-88
2023/02/04 02:34:36;;;;;;;25.38;4.97;;;8.50;1.00;;;;;;4971698;28;20486;-88
2023/02/04 02:37:03;;;;;;;16.57;5.37;;;8.40;1.00;;;;;;4964622;28;20429;-87
2023/02/04 02:39:28;;;;;;;13.93;4.38;;;8.40;1.00;;;;;;4964382;28;20443;-89
2023/02/04 02:41:56;;;;;;;14.53;4.20;;;8.40;1.00;;;;;;4969177;28;20659;-87
2023/02/04 02:44:22;;;;;;;20.40;4.15;;;8.40;1.00;;;;;;4971143;28;20200;-90
2023/02/04 02:46:48;;;;;;;25.35;5.32;;;8.40;1.00;;;;;;4969691;28;20300;-88
2023/02/04 02:49:16;;;;;;;18.23;4.30;;;8.40;1.00;;;;;;4972013;28;20291;-87
2023/02/04 02:51:42;;;;;;;17.25;5.78;;;8.40;1.00;;;;;;4973915;28;20653;-88
2023/02/04 02:54:27;;;;;;;17.37;4.83;;;8.40;1.00;;;;;;4967587;28;20203;-89
2023/02/04 02:56:54;;;;;;;19.05;3.30;;;8.40;1.00;;;;;;4964664;28;20947;-88
2023/02/04 02:59:19;;;;;;;14.13;4.85;;;8.40;1.00;;;;;;4966652;28;20756;-88
2023/02/04 03:01:50;;;;;;;13.77;4.50;;;8.40;1.00;;;;;;4970245;28;20194;-88
2023/02/04 03:04:17;;;;;;;19.13;4.60;;;8.40;1.00;;;;;;4969855;28;20626;-88
2023/02/04 03:06:43;;;;;;;11.23;3.80;;;8.40;1.00;;;;;;4976888;28;20562;-87
2023/02/04 03:09:09;;;;;;;12.53;4.03;;;8.40;1.00;;;;;;4977958;28;20200;-87
2023/02/04 03:11:35;;;;;;;15.47;5.17;;;8.40;1.00;;;;;;4968180;28;20438;-87
2023/02/04 03:14:01;;;;;;;21.80;5.70;;;8.40;1.00;;;;;;4966395;28;20312;-88
2023/02/04 03:16:29;;;;;;;16.53;5.40;;;8.40;1.00;;;;;;4969732;28;20935;-88
2023/02/04 03:18:55;;;;;;;15.47;5.07;;;8.40;1.00;;;;;;4963471;28;20432;-88
2023/02/04 03:21:20;;;;;;;17.10;4.37;;;8.40;1.00;;;;;;4970360;28;20512;-88
2023/02/04 03:23:46;;;;;;;14.00;4.60;;;8.40;1.00;;;;;;4970236;28;20455;-88
2023/02/04 03:26:12;;;;;;;21.37;4.90;;;8.40;1.00;;;;;;4970862;28;20265;-86
2023/02/04 03:28:41;;;;;;;10.37;4.20;;;8.30;1.00;;;;;;4969165;28;20188;-88
2023/02/04 03:31:07;;;;;;;10.27;3.80;;;8.30;1.00;;;;;;4968095;28;20189;-89
2023/02/04 03:33:34;;;;;;;11.70;4.33;;;8.30;1.00;;;;;;4964407;28;20699;-87
2023/02/04 03:36:00;;;;;;;17.60;3.92;;;8.30;1.00;;;;;;4970991;28;20180;-88
2023/02/04 03:38:25;;;;;;;13.70;3.80;;;8.30;1.00;;;;;;4962471;28;20186;-88
2023/02/04 03:40:51;;;;;;;11.30;4.20;;;8.30;1.00;;;;;;4969572;28;20779;-87
2023/02/04 03:43:16;;;;;;;21.23;4.77;;;8.20;1.00;;;;;;4971345;28;20190;-88
2023/02/04 03:45:42;;;;;;;14.17;4.43;;;8.20;1.00;;;;;;4969742;28;20189;-87
2023/02/04 03:48:07;;;;;;;12.17;3.67;;;8.20;1.00;;;;;;4962046;28;20189;-88
2023/02/04 03:50:33;;;;;;;21.23;5.13;;;8.20;1.00;;;;;;4963119;28;20196;-87
2023/02/04 03:52:58;;;;;;;17.50;4.87;;;8.20;1.00;;;;;;4970133;28;20215;-88
2023/02/04 03:55:25;;;;;;;14.17;4.10;;;8.20;1.00;;;;;;4969954;28;20204;-86
2023/02/04 03:57:51;;;;;;;14.73;3.83;;;8.10;1.00;;;;;;4970828;28;20177;-88
2023/02/04 04:00:16;;;;;;;19.30;4.97;;;8.10;1.00;;;;;;4969869;28;20199;-88
2023/02/04 04:02:42;;;;;;;15.13;3.50;;;8.10;1.00;;;;;;4970525;28;20188;-88
2023/02/04 04:05:08;;;;;;;17.23;3.50;;;8.10;1.00;;;;;;4968294;28;20204;-88
2023/02/04 04:07:34;;;;;;;12.48;4.70;;;8.00;1.00;;;;;;4962425;28;20224;-88
2023/02/04 04:09:59;;;;;;;11.47;5.00;;;8.10;1.00;;;;;;4969829;28;20292;-88
2023/02/04 04:12:25;;;;;;;16.90;4.30;;;8.10;1.00;;;;;;4971197;28;20227;-88
2023/02/04 04:14:50;;;;;;;21.50;4.40;;;8.10;1.00;;;;;;4972390;28;20610;-87
2023/02/04 04:17:16;;;;;;;14.63;4.40;;;8.10;1.00;;;;;;4973316;28;20195;-89
2023/02/04 04:19:43;;;;;;;15.97;4.67;;;8.10;1.00;;;;;;4972918;28;20200;-88
2023/02/04 04:22:09;;;;;;;14.70;4.80;;;8.10;1.00;;;;;;4970917;28;20220;-88
2023/02/04 04:24:35;;;;;;;18.57;4.63;;;8.10;1.00;;;;;;4971268;28;20252;-88
2023/02/04 04:27:00;;;;;;;19.23;3.97;;;8.00;1.00;;;;;;4974501;28;20215;-87
2023/02/04 04:29:26;;;;;;;16.00;5.03;;;8.00;1.00;;;;;;4973069;28;20631;-87
2023/02/04 04:31:51;;;;;;;23.93;4.40;;;8.00;1.00;;;;;;4973858;28;20192;-88
2023/02/04 04:34:17;;;;;;;15.40;3.60;;;8.00;1.00;;;;;;4972013;28;20196;-88
2023/02/04 04:36:42;;;;;;;18.63;3.97;;;8.00;1.00;;;;;;4974180;28;20226;-86
2023/02/04 04:39:08;;;;;;;16.67;5.03;;;8.00;1.00;;;;;;4971857;28;20208;-88
2023/02/04 04:41:34;;;;;;;16.10;3.73;;;8.00;1.00;;;;;;4969501;28;20251;-88
2023/02/04 04:43:59;;;;;;;22.03;5.60;;;8.00;1.00;;;;;;4973395;28;20214;-87
2023/02/04 04:46:25;;;;;;;16.30;3.90;;;8.00;1.00;;;;;;4970633;28;20228;-88
2023/02/04 04:48:50;;;;;;;21.40;4.13;;;8.00;1.00;;;;;;4973138;28;20184;-88
2023/02/04 04:51:16;;;;;;;16.53;4.67;;;8.00;1.00;;;;;;4972391;28;20188;-88
2023/02/04 04:53:41;;;;;;;11.97;4.27;;;8.00;1.00;;;;;;4970549;28;20211;-88
2023/02/04 04:56:07;;;;;;;13.43;4.17;;;8.00;1.00;;;;;;4966188;28;20247;-88
2023/02/04 04:58:32;;;;;;;14.83;4.73;;;8.00;1.00;;;;;;4971026;28;20223;-87
2023/02/04 05:00:58;;;;;;;23.33;4.40;;;8.10;1.00;;;;;;4972090;28;20247;-86
2023/02/04 05:03:23;;;;;;;14.73;4.20;;;8.10;1.00;;;;;;4973157;28;20653;-88
2023/02/04 05:05:49;;;;;;;25.90;4.77;;;8.10;1.00;;;;;;4972818;28;20247;-88
2023/02/04 05:08:15;;;;;;;16.00;3.40;;;8.10;1.00;;;;;;4972238;28;20184;-88
2023/02/04 05:10:42;;;;;;;13.38;4.00;;;8.20;1.00;;;;;;4968256;28;20180;-87
2023/02/04 05:13:08;;;;;;;15.97;4.43;;;8.20;1.00;;;;;;4973045;28;20198;-88
2023/02/04 05:15:34;;;;;;;16.92;4.80;;;8.10;1.00;;;;;;4972318;28;20809;-88
2023/02/04 05:18:00;;;;;;;18.30;4.47;;;8.10;1.00;;;;;;4973008;28;20184;-89
2023/02/04 05:20:25;;;;;;;11.87;4.23;;;8.10;1.00;;;;;;4972402;28;20825;-87
2023/02/04 05:22:51;;;;;;;21.97;4.47;;;8.10;1.00;;;;;;4972049;28;20192;-88
2023/02/04 05:25:16;;;;;;;17.03;4.47;;;8.10;1.00;;;;;;4970871;28;20204;-88
2023/02/04 05:27:44;;;;;;;28.90;5.10;;;8.10;1.00;;;;;;4969955;28;20224;-88
2023/02/04 05:30:11;;;;;;;21.92;5.30;;;8.10;1.00;;;;;;4968236;28;20180;-88
2023/02/04 05:32:37;;;;;;;11.07;4.10;;;8.10;1.00;;;;;;4967075;28;20212;-89
2023/02/04 05:35:03;;;;;;;18.30;4.95;;;8.10;1.00;;;;;;4970494;28;20204;-88
2023/02/04 05:37:29;;;;;;;20.63;4.63;;;8.10;1.00;;;;;;4971544;28;20708;-88
2023/02/04 05:39:54;;;;;;;22.43;5.30;;;8.10;1.00;;;;;;4971414;28;20242;-88
2023/02/04 05:42:20;;;;;;;23.40;5.97;;;8.10;1.00;;;;;;4972492;28;20216;-88
2023/02/04 05:44:45;;;;;;;21.83;5.47;;;8.10;1.00;;;;;;4966048;28;20303;-88
2023/02/04 05:47:11;;;;;;;17.63;5.70;;;8.10;1.00;;;;;;4958687;28;20223;-88
2023/02/04 05:49:36;;;;;;;23.13;4.70;;;8.10;1.00;;;;;;4969811;28;20192;-88
2023/02/04 05:52:03;;;;;;;15.03;5.33;;;8.10;1.00;;;;;;4982644;28;20491;-89
2023/02/04 05:54:28;;;;;;;18.45;5.00;;;8.10;1.00;;;;;;4971608;28;20228;-87
2023/02/04 05:56:54;;;;;;;12.40;4.10;;;8.10;1.00;;;;;;4972525;28;20251;-88
2023/02/04 05:59:19;;;;;;;22.13;5.30;;;8.10;1.00;;;;;;4971493;28;20251;-86
2023/02/04 06:01:45;;;;;;;14.70;5.83;;;8.10;1.00;;;;;;4970750;28;20248;-88
2023/02/04 06:04:10;;;;;;;15.47;6.27;;;8.20;1.00;;;;;;4968975;28;20204;-88
2023/02/04 06:06:36;;;;;;;18.60;5.50;;;8.20;1.00;;;;;;4974724;28;20216;-88
2023/02/04 06:09:02;;;;;;;17.90;6.70;;;8.20;1.00;;;;;;4970671;28;20227;-88
2023/02/04 06:11:27;;;;;;;18.27;6.15;;;8.20;1.00;;;;;;4972754;28;20598;-88
2023/02/04 06:13:53;;;;;;;15.83;5.03;;;8.20;1.00;;;;;;4969476;28;20236;-87
2023/02/04 06:16:18;;;;;;;18.07;5.57;;;8.20;1.00;;;;;;4965089;28;20288;-88
2023/02/04 06:18:44;;;;;;;31.87;7.20;;;8.20;1.00;;;;;;4968991;28;20206;-88
2023/02/04 06:21:09;;;;;;;19.50;5.83;;;8.20;1.00;;;;;;4973216;28;20268;-87
2023/02/04 06:23:35;;;;;;;15.00;5.30;;;8.20;1.00;;;;;;4966986;28;20211;-87
2023/02/04 06:26:01;;;;;;;19.50;6.63;;;8.20;1.00;;;;;;4969359;28;20537;-88
2023/02/04 06:28:27;;;;;;;16.10;4.95;;;8.20;1.00;;;;;;4969192;28;20202;-87
2023/02/04 06:30:53;;;;;;;14.43;6.90;;;8.20;1.00;;;;;;4971683;28;20186;-88
2023/02/04 06:33:20;;;;;;;18.43;5.80;;;8.30;1.00;;;;;;4970785;28;20443;-88
2023/02/04 06:35:45;;;;;;;28.60;7.20;;;8.30;1.00;;;;;;4966841;28;20181;-88
2023/02/04 06:38:11;;;;;;;21.57;6.47;;;8.30;1.00;;;;;;4970199;28;20250;-88
2023/02/04 06:40:37;;;;;;;19.53;7.27;;;8.30;1.00;;;;;;4972851;28;20196;-88
2023/02/04 06:43:02;;;;;;;18.13;6.00;;;8.30;1.00;;;;;;4970230;28;20190;-87
2023/02/04 06:45:28;;;;;;;22.43;6.50;;;8.30;1.00;;;;;;4974298;28;20521;-87
2023/02/04 06:47:53;;;;;;;28.30;7.07;;;8.30;1.00;;;;;;4970985;28;20211;-88
2023/02/04 06:50:19;;;;;;;16.67;6.80;;;8.20;1.00;;;;;;4971436;28;20190;-87
2023/02/04 06:52:48;;;;;;;31.10;8.67;;;8.20;1.00;;;;;;4967320;28;20189;-87
2023/02/04 06:55:15;;;;;;;20.60;6.35;;;8.20;1.00;;;;;;4957190;28;20208;-88
2023/02/04 06:57:41;;;;;;;15.55;5.97;;;8.20;1.00;;;;;;4971226;28;20258;-87
2023/02/04 07:00:10;;;;;;;21.70;6.53;;;8.20;1.00;;;;;;4970356;28;20191;-88
2023/02/04 07:02:36;;;;;;;21.98;7.22;;;8.20;1.00;;;;;;4971281;28;20498;-88
2023/02/04 07:05:02;;;;;;;25.83;7.90;;;8.20;1.00;;;;;;4970521;28;20874;-87
2023/02/04 07:07:28;;;;;;;25.55;7.45;;;8.20;1.00;;;;;;4971827;28;20513;-87
2023/02/04 07:09:54;;;;;;;19.02;7.35;;;8.20;1.00;;;;;;4966606;28;20184;-86
2023/02/04 07:12:19;;;;;;;23.13;7.87;;;8.30;1.00;;;;;;4971357;28;20184;-86
2023/02/04 07:14:45;;;;;;;21.60;7.57;;;8.30;1.00;;;;;;4971165;28;20636;-86
2023/02/04 07:17:11;;;;;;;20.83;7.30;;;8.40;1.00;;;;;;4972440;28;20209;-86
2023/02/04 07:19:36;;;;;;;23.13;7.83;;;8.40;1.00;;;;;;4971034;28;20267;-87
2023/02/04 07:22:03;;;;;;;19.00;8.30;;;8.40;1.00;;;;;;4972717;28;20188;-88
2023/02/04 07:24:28;;;;;;;29.13;8.80;;;8.50;1.00;;;;;;4970914;28;20206;-87
2023/02/04 07:26:54;;;;;;;20.80;7.37;;;8.50;1.00;;;;;;4969877;28;20855;-86
2023/02/04 07:29:20;;;;;;;28.83;8.20;;;8.50;1.00;;;;;;4970086;28;20188;-87
2023/02/04 07:31:45;;;;;;;27.50;8.80;;;8.50;1.00;;;;;;4977917;28;20282;-86
2023/02/04 07:34:13;;;;;;;27.53;8.00;;;8.50;1.00;;;;;;4972081;28;20335;-86
2023/02/04 07:36:39;;;;;;;26.97;8.73;;;8.50;1.00;;;;;;4970866;28;20511;-86
2023/02/04 07:39:05;;;;;;;32.13;9.23;;;8.40;1.00;;;;;;4972318;28;20528;-86
2023/02/04 07:41:30;;;;;;;24.50;9.00;;;8.50;1.00;;;;;;4972089;28;20458;-86
2023/02/04 07:43:56;;;;;;;23.73;8.43;;;8.50;1.00;;;;;;4970025;28;20459;-87
2023/02/04 07:46:21;;;;;;;27.93;9.90;;;8.50;1.00;;;;;;4973712;28;20212;-86
2023/02/04 07:48:47;;;;;;;32.50;8.90;;;8.60;1.00;;;;;;4974935;28;20215;-86
2023/02/04 07:51:12;;;;;;;22.17;8.50;;;8.60;1.00;;;;;;4975042;28;20208;-87
2023/02/04 07:53:38;;;;;;;28.87;10.77;;;8.60;1.00;;;;;;4975245;28;20207;-87
2023/02/04 07:56:04;;;;;;;36.97;9.50;;;8.70;1.00;;;;;;4974528;28;20239;-88
2023/02/04 07:58:29;;;;;;;29.33;9.37;;;8.70;1.00;;;;;;4982858;28;20180;-86
2023/02/04 08:00:55;;;;;;;20.63;9.10;;;8.80;1.00;;;;;;4973150;28;20189;-86
2023/02/04 08:03:20;;;;;;;23.90;9.37;;;8.80;1.00;;;;;;4966176;28;20652;-87
2023/02/04 08:07:05;;;;;;;24.63;10.10;;;8.90;99.90;;;;;;5075799;27;20567;-86
2023/02/04 08:09:33;;;;;;;29.67;11.03;;;8.90;99.90;;;;;;5066325;28;20574;-87
2023/02/04 08:12:01;;;;;;;24.93;10.73;;;8.90;99.90;;;;;;5068390;28;20543;-86
2023/02/04 08:14:26;;;;;;;32.10;12.40;;;9.00;99.90;;;;;;5068656;28;20466;-86
2023/02/04 08:16:52;;;;;;;36.53;13.87;;;9.00;99.90;;;;;;5064595;28;20463;-87
2023/02/04 08:19:20;;;;;;;41.00;12.23;;;9.00;99.90;;;;;;5058661;28;20621;-88
2023/02/04 08:21:53;;;;;;;34.80;12.30;;;9.00;99.90;;;;;;5063925;28;20216;-85
2023/02/04 08:24:26;;;;;;;34.00;13.20;;;9.10;99.90;;;;;;5060743;28;20954;-87
2023/02/04 08:26:52;;;;;;;34.83;12.33;;;9.20;99.90;;;;;;5068418;28;20440;-85
2023/02/04 08:29:26;;;;;;;26.07;11.93;;;9.20;99.90;;;;;;5059977;28;20438;-87
2023/02/04 08:31:54;;;;;;;29.50;12.67;;;9.30;99.90;;;;;;5059764;28;20188;-86
2023/02/04 08:34:25;;;;;;;35.17;12.27;;;9.30;99.90;;;;;;5063899;28;20810;-86
2023/02/04 08:36:57;;;;;;;29.57;12.60;;;9.40;99.90;;;;;;5057239;28;20464;-86
2023/02/04 08:39:37;;;;;;;30.23;12.60;;;9.50;99.90;;;;;;5059687;28;20468;-87
2023/02/04 08:42:08;;;;;;;33.43;12.23;;;9.60;99.90;;;;;;5059689;28;20461;-87
2023/02/04 08:45:08;;;;;;;28.90;11.80;;;9.70;93.20;;;;;;5075213;28;20461;-87
2023/02/04 08:47:42;;;;;;;33.47;13.03;;;9.70;4.60;;;;;;5059688;28;20471;-87
2023/02/04 08:50:27;;;;;;;29.90;11.73;;;9.80;1.00;;;;;;5064962;28;20790;-85
2023/02/04 08:52:53;;;;;;;34.27;11.63;;;9.70;1.00;;;;;;5059720;28;20427;-86
2023/02/04 08:55:18;;;;;;;45.03;13.97;;;9.70;1.00;;;;;;5065517;28;20460;-86
2023/02/04 08:57:58;;;;;;;30.33;13.67;;;9.80;1.00;;;;;;5051045;28;20216;-86
2023/02/04 09:00:51;;;;;;;32.03;13.13;;;10.10;1.00;;;;;;5062753;28;20219;-86
2023/02/04 09:03:40;;;;;;;28.73;11.53;;;10.60;99.90;;;;;;5058740;28;20432;-86
2023/02/04 09:06:24;;;;;;;25.97;11.83;;;11.20;61.90;;;;;;5061936;28;20466;-86
2023/02/04 09:08:53;;;;;;;35.97;12.87;;;11.70;1.00;;;;;;5063027;28;20950;-86
2023/02/04 09:11:31;;;;;;;30.37;12.97;;;12.10;1.00;;;;;;5058680;28;20464;-86
2023/02/04 09:14:15;;;;;;;33.60;12.97;;;12.70;1.00;;;;;;5061514;28;20501;-86
2023/02/04 09:16:40;;;;;;;36.17;13.20;;;13.10;38.10;;;;;;5056780;28;20444;-88
2023/02/04 09:19:15;;;;;;;28.20;11.77;;;13.70;83.90;;;;;;5054359;28;20416;-85
2023/02/04 09:21:46;;;;;;;31.70;12.40;;;14.40;1.00;;;;;;5054290;28;20282;-88
2023/02/04 09:24:22;;;;;;;27.00;10.83;;;14.70;99.90;;;;;;5053669;28;20471;-87
2023/02/04 09:26:59;;;;;;;28.23;12.03;;;14.60;1.00;;;;;;5050773;28;20478;-87
2023/02/04 09:30:01;;;;;;;36.03;12.20;;;14.20;1.00;;;;;;5041818;28;20782;-87
2023/02/04 09:32:30;;;;;;;32.00;13.37;;;14.10;1.00;;;;;;5046608;28;20443;-88
2023/02/04 09:43:00;;;;;;;23.60;12.47;;;13.70;1.00;;;;;;5154426;22;20860;-88
2023/02/04 09:45:44;;;;;;;31.83;13.27;;;13.50;1.00;;;;;;5028432;28;20471;-86
2023/02/04 09:48:12;;;;;;;34.50;13.27;;;13.40;1.00;;;;;;5010424;28;20510;-86
2023/02/04 09:51:24;;;;;;;;;;;;;;;;;;;;;
2023/02/04 09:54:24;;;;;;;37.67;14.20;;;13.20;1.00;;;;;;5014091;28;20434;-87
2023/02/04 10:03:45;;;;;;;32.17;12.37;;;13.10;1.00;;;;;;5014961;28;21003;-86
2023/02/04 10:06:43;;;;;;;28.40;14.87;;;13.10;1.00;;;;;;5012129;28;20561;-87
2023/02/04 10:09:21;;;;;;;32.33;12.50;;;13.10;1.00;;;;;;4969405;28;20846;-87
2023/02/04 10:11:50;;;;;;;26.80;12.60;;;13.20;1.00;;;;;;4957246;28;20507;-87
2023/02/04 10:14:32;;;;;;;33.50;13.57;;;13.40;1.00;;;;;;5014346;28;20478;-87
2023/02/04 10:17:16;;;;;;;26.43;11.90;;;13.60;1.00;;;;;;5021385;28;20443;-86
2023/02/04 10:19:51;;;;;;;28.90;11.40;;;13.90;1.00;;;;;;5030697;28;20440;-87
2023/02/04 10:22:23;;;;;;;40.70;12.20;;;14.00;1.00;;;;;;5029389;28;20501;-86
2023/02/04 10:25:55;;;;;;;29.60;11.30;;;14.10;1.00;;;;;;5024720;28;20466;-87
2023/02/04 10:28:57;;;;;;;42.83;11.83;;;14.00;1.00;;;;;;5014428;28;20444;-87
2023/02/04 10:32:06;;;;;;;38.57;11.90;;;13.90;1.00;;;;;;5024068;28;20936;-87
2023/02/04 10:35:04;;;;;;;25.23;12.27;;;13.90;1.00;;;;;;4997228;28;20496;-88
2023/02/04 10:37:30;;;;;;;35.07;12.83;;;13.90;1.00;;;;;;5011745;28;20454;-87
2023/02/04 10:40:02;;;;;;;25.53;11.20;;;14.00;1.00;;;;;;5028716;28;20817;-87
2023/02/04 10:43:24;;;;;;;31.37;11.70;;;14.10;1.00;;;;;;5010601;28;20449;-88
2023/02/04 10:46:01;;;;;;;34.33;10.73;;;14.30;1.00;;;;;;5010782;28;20439;-85
2023/02/04 10:48:29;;;;;;;26.23;11.40;;;14.60;1.00;;;;;;5011046;28;20449;-87
2023/02/04 10:51:15;;;;;;;28.57;11.83;;;14.80;1.00;;;;;;5012575;28;20458;-85
2023/02/04 11:00:52;;;;;;;29.73;11.60;;;15.60;1.00;;;;;;5001615;28;20425;-85
2023/02/04 11:03:33;;;;;;;25.03;9.33;;;15.70;1.00;;;;;;5026095;28;20495;-86
2023/02/04 11:06:29;;;;;;;32.63;11.53;;;15.80;1.00;;;;;;5010108;28;20464;-86
2023/02/04 11:09:02;;;;;;;28.73;10.90;;;15.80;99.90;;;;;;5015924;28;20436;-85
2023/02/04 11:15:29;;;;;;;31.40;9.13;;;16.00;99.90;;;;;;4982977;28;20565;-86
2023/02/04 11:18:59;;;;;;;31.50;9.60;;;16.10;99.90;;;;;;5025117;28;20468;-86
2023/02/04 11:22:26;;;;;;;25.13;9.13;;;16.10;99.90;;;;;;4997304;28;20448;-85
2023/02/04 11:24:52;;;;;;;26.23;8.37;;;16.10;99.90;;;;;;4950734;28;20475;-85
2023/02/04 11:27:25;;;;;;;28.97;8.73;;;16.00;99.90;;;;;;5007418;28;20498;-85
2023/02/04 11:29:51;;;;;;;28.87;9.67;;;15.80;99.90;;;;;;5012900;28;20194;-85
2023/02/04 11:32:27;;;;;;;28.93;9.40;;;15.70;99.90;;;;;;5013357;28;20492;-87
2023/02/04 11:34:56;;;;;;;20.73;8.30;;;15.70;99.90;;;;;;5016286;28;20744;-87
2023/02/04 11:37:42;;;;;;;26.50;8.73;;;15.70;99.90;;;;;;5027474;28;20440;-86
2023/02/04 11:40:28;;;;;;;20.20;7.13;;;15.70;99.90;;;;;;5012750;28;20495;-85
2023/02/04 11:43:10;;;;;;;28.53;8.50;;;15.80;99.90;;;;;;5015960;28;20829;-85
2023/02/04 11:45:37;;;;;;;27.10;7.77;;;15.80;99.90;;;;;;5015470;28;20803;-85
2023/02/04 11:48:18;;;;;;;17.97;7.97;;;15.90;99.90;;;;;;5013295;28;20446;-84
2023/02/04 11:50:58;;;;;;;31.83;9.63;;;15.90;99.90;;;;;;5013603;28;20498;-87
2023/02/04 11:53:52;;;;;;;36.80;9.40;;;16.10;99.90;;;;;;5016939;28;20456;-85
2023/02/04 11:56:22;;;;;;;19.93;6.97;;;16.40;99.90;;;;;;5006312;28;20466;-86
2023/02/04 11:59:16;;;;;;;27.90;8.40;;;16.80;99.90;;;;;;5011705;28;20823;-87
2023/02/04 12:01:42;;;;;;;32.30;8.37;;;17.30;99.90;;;;;;5014765;28;20444;-86
2023/02/04 12:04:35;;;;;;;24.90;7.50;;;17.60;99.90;;;;;;5004299;28;20463;-87
2023/02/04 12:07:12;;;;;;;20.67;8.47;;;17.80;99.90;;;;;;5019492;28;20244;-86
2023/02/04 12:09:57;;;;;;;24.83;7.40;;;18.10;99.90;;;;;;5007634;28;20855;-87
2023/02/04 12:12:39;;;;;;;25.30;7.10;;;18.80;99.90;;;;;;5012084;28;20523;-88
2023/02/04 12:15:38;;;;;;;21.57;7.70;;;19.20;99.90;;;;;;5028763;28;20548;-86
2023/02/04 12:19:13;;;;;;;;;;;;;;;;;;;;;
2023/02/04 12:21:28;;;;;;;20.33;7.63;;;19.00;99.90;;;;;;4986813;28;20446;-87
2023/02/04 12:24:01;;;;;;;22.97;6.20;;;19.00;99.90;;;;;;5002950;28;20459;-86
2023/02/04 12:26:58;;;;;;;26.63;8.17;;;19.30;99.90;;;;;;5005950;28;20437;-87
2023/02/04 12:29:27;;;;;;;22.87;8.03;;;19.10;99.90;;;;;;5003612;28;20445;-89
2023/02/04 12:32:28;;;;;;;28.10;7.97;;;18.80;99.90;;;;;;5004385;28;20444;-87
2023/02/04 12:44:41;;;;;;;27.23;6.43;;;20.40;99.90;;;;;;5015179;28;20507;-88
2023/02/04 12:51:01;;;;;;;29.03;6.83;;;20.20;99.90;;;;;;4916474;28;20479;-88
2023/02/04 12:53:37;;;;;;;19.10;6.23;;;19.60;99.90;;;;;;5010263;28;20908;-89
2023/02/04 12:56:34;;;;;;;;;;;;;;;;;;;;;
2023/02/04 12:59:09;;;;;;;24.73;6.17;;;18.90;99.90;;;;;;4913505;29;20483;-88
2023/02/04 13:01:35;;;;;;;17.00;6.20;;;19.10;99.90;;;;;;4990552;28;20451;-87
2023/02/04 13:04:13;;;;;;;13.30;4.70;;;19.40;99.90;;;;;;4991495;28;20453;-87
2023/02/04 13:06:46;;;;;;;20.00;5.33;;;19.90;99.90;;;;;;5028404;28;20222;-86
2023/02/04 13:09:20;;;;;;;15.40;4.97;;;20.20;99.90;;;;;;5023484;28;20438;-87
2023/02/04 13:11:48;;;;;;;22.50;5.10;;;20.20;99.90;;;;;;5010726;28;20487;-86
2023/02/04 13:14:13;;;;;;;18.37;6.00;;;20.20;99.90;;;;;;5014367;28;20467;-84
2023/02/04 13:16:39;;;;;;;16.53;5.30;;;20.40;99.90;;;;;;5012103;28;20512;-88
2023/02/04 13:19:05;;;;;;;12.67;4.83;;;20.60;99.90;;;;;;5029461;28;20627;-88
2023/02/04 13:21:33;;;;;;;16.00;5.37;;;20.60;99.90;;;;;;5011889;28;20580;-87
2023/02/04 13:23:58;;;;;;;17.43;5.33;;;20.70;99.90;;;;;;5013334;28;20194;-86
2023/02/04 13:26:50;;;;;;;16.40;5.70;;;20.70;99.90;;;;;;5016546;28;20449;-87
2023/02/04 13:29:18;;;;;;;17.20;5.73;;;20.60;99.90;;;;;;4984001;28;20289;-87
2023/02/04 13:31:53;;;;;;;17.13;5.80;;;20.50;99.90;;;;;;5015596;28;20443;-89
2023/02/04 13:34:34;;;;;;;19.53;5.17;;;20.10;99.90;;;;;;5016055;28;20513;-89
2023/02/04 13:37:08;;;;;;;20.80;5.77;;;19.80;99.90;;;;;;5027429;28;20455;-87
2023/02/04 13:39:33;;;;;;;19.13;4.67;;;19.80;99.90;;;;;;5024419;28;20900;-87
2023/02/04 13:42:05;;;;;;;25.23;5.80;;;19.70;99.90;;;;;;5012404;28;20486;-88
2023/02/04 13:44:36;;;;;;;24.83;5.63;;;19.50;99.90;;;;;;5005151;28;20195;-87
2023/02/04 13:47:05;;;;;;;29.67;6.80;;;19.30;99.90;;;;;;5013064;28;20796;-87
2023/02/04 13:49:36;;;;;;;25.43;6.87;;;19.10;99.90;;;;;;5028832;28;20824;-88
2023/02/04 13:52:02;;;;;;;18.53;5.40;;;18.90;99.90;;;;;;5012516;28;20520;-88
2023/02/04 13:54:53;;;;;;;20.60;7.40;;;18.80;99.90;;;;;;5025195;28;20607;-86
2023/02/04 13:57:20;;;;;;;24.77;7.40;;;18.60;99.90;;;;;;5014270;28;20193;-87
2023/02/04 13:59:48;;;;;;;18.33;7.47;;;18.50;99.90;;;;;;5006381;28;20543;-87